| Station | Date | Time | Temp (°F) | RH (%) | Dew Pt (°F) | Wind Dir (°) | Wind Spd (mph) | Wind Gust (mph) | Solar Rad (W/m2) | Pressure (mb) | Daily Min Temp (°F) | Daily Max Temp (°F) | Daily Max Wind (mph) | Daily Rain (In) | Yest MinT (°F) | Yest MaxT (°F) | Yest MaxGst (mph) | Yest Precip (In) | MinBV Day (V) |
|---|---|---|---|---|---|---|---|---|---|---|---|---|---|---|---|---|---|---|---|
| MWA Office | 5/8/26 | 1730 | 86.6 1.2 | 16 5 | 35.0 5.8 | SW | 223 | 13.0 1.5 | 21.0 2.0 | 412 2 | 1,007.2 0.4 | 51.5 4.4 | 93.3 2.2 | 23.4 2.2 | 0.00 | 47.1 | 91.1 | 21.5 | 0.00 | 12.4 0.0 |
| MWA OPS | 5/8/26 | 1730 | 84.7 1.4 | 25 2 | 44.9 0.5 | SW | 225 | 11.6 0.2 | 18.0 1.5 | 413 8 | 1,006.9 1.2 | 53.9 3.5 | 90.4 0.9 | 24.1 2.8 | 0.00 | 50.4 | 89.5 | 21.3 | 0.00 | 12.8 0.0 |
| LV-PS | 5/8/26 | 1730 | 90.6 2.3 | 12 1 | 31.4 0.7 | WNW | 285 | 12.1 5.8 | 19.1 4.0 | 442 15 | 1,004.7 1.5 | 59.2 6.0 | 93.9 4.1 | 22.6 0.9 | 0.00 | 53.2 | 89.8 | 23.9 | 0.00 | 12.8 0.0 |
| JV-PS | 5/8/26 | 1730 | 92.1 3.4 | 11 1 | 29.6 0.1 | W | 267 | 6.3 2.6 | 14.2 2.4 | 420 1 | 1,004.2 1.9 | 66.9 15.0 | 93.5 3.5 | 21.9 0.2 | 0.00 | 51.8 | 90.0 | 22.1 | 0.00 | 12.9 0.0 |
| BDVWA | 5/8/26 | 1730 | 87.0 2.3 | 14 2 | 31.3 0.9 | S | 183 | 9.8 4.5 | 16.7 0.2 | 430 1 | 1,004.7 1.5 | 68.4 5.7 | 90.6 4.3 | 20.0 0.4 | 0.00 | 62.7 | 86.3 | 26.3 | 0.00 | 12.9 0.0 |
| Newberry Springs | 5/8/26 | 1730 | 97.6 3.4 | 12 1 | 36.2 1.3 | WNW | 299 | 9.0 0.3 | 15.8 0.9 | 442 8 | 1,004.1 1.9 | 67.1 5.1 | 98.9 3.6 | 28.7 8.8 | 0.00 | 62.1 | 95.3 | 35.7 | 0.00 | 12.9 0.0 |
| Pinon Hills | 5/8/26 | 1730 | 79.0 1.5 | 33 8 | 47.1 8.1 | NW | 315 | 7.1 3.2 | 15.1 6.8 | 432 4 | 1,006.3 1.3 | 54.2 3.4 | 83.9 2.9 | 17.1 4.8 | 0.00 | 57.6 | 81.0 | 25.2 | 0.00 | 12.9 0.0 |
| Helendale | 5/8/26 | 1730 | 93.5 2.0 | 20 4 | 45.9 8.2 | W | 275 | 12.6 4.5 | 22.1 6.1 | 396 7 | 1,004.5 1.5 | 60.0 10.8 | 95.4 2.1 | 22.6 2.0 | 0.00 | 49.2 | 93.3 | 29.2 | 0.00 | 12.8 0.0 |
| Lenwood | 5/8/26 | 1730 | 95.6 3.3 | 15 3 | 41.4 9.0 | WSW | 251 | 8.3 1.1 | 16.7 0.7 | 445 6 | 1,004.2 1.7 | 61.4 13.0 | 98.2 4.3 | 18.6 2.6 | 0.00 | 48.4 | 93.9 | 25.4 | 0.00 | 12.8 0.1 |
| Oak Hills | 5/8/26 | 1730 | 73.2 0.0 | 36 11 | 45.1 7.2 | SSW | 211 | 9.9 2.4 | 21.7 4.6 | 401 6 | 1,009.1 0.6 | 56.4 4.8 | 80.0 1.9 | 21.7 3.5 | 0.00 | 51.6 | 81.9 | 18.2 | 0.00 | 13.0 0.0 |
| Pipes Wash Canyon | 5/8/26 | 1730 | 82.6 2.3 | 15 0 | 30.7 2.2 | NW | 315 | 2.2 4.3 | 9.2 7.7 | 391 3 | 1,004.6 1.4 | 63.1 7.1 | 86.2 3.3 | 21.3 9.9 | 0.00 | 56.0 | 82.9 | 31.1 | 0.00 | 12.9 0.0 |
| Max | 97.6 | 36 | 47.1 | - | 13.0 | 22.1 | 445 | 1,009.1 | 68.4 | 98.9 | 28.7 | 0.00 | 62.7 | 95.3 | 35.7 | 0.00 | 13.0 | ||
| Avg | 87.5 | 19 | 38.1 | - | 9.3 | 17.2 | 420 | 1,005.5 | - | - | - | - | - | - | - | - | - | ||
| Min | 73.2 | 11 | 29.6 | - | 2.2 | 9.2 | 391 | 1,004.1 | 51.5 | 80.0 | 17.1 | 0.00 | 47.1 | 81.0 | 18.2 | 0.00 | 12.4 |
| Station | Date | Time | Latest Rain (In) | Daily Rain (In) | Yest Precip (In) | Month Precip (In) | Season Precip (In) | Daily ETo (in) | Yest ETo (In) | 7 Day ETo (in) |
|---|---|---|---|---|---|---|---|---|---|---|
| MWA Office | 5/8/26 | 1730 | 0.00 | 0.00 | 0.00 | 0.00 | 4.30 | 0.241 | 0.26 | 1.57 |
| MWA OPS | 5/8/26 | 1730 | 0.00 | 0.00 | 0.00 | 0.00 | 9.32 | 0.252 | 0.26 | 1.59 |
| LV-PS | 5/8/26 | 1730 | 0.00 | 0.00 | 0.00 | 0.00 | 3.63 | 0.276 | 0.29 | 1.81 |
| JV-PS | 5/8/26 | 1730 | 0.00 | 0.00 | 0.00 | 0.02 | 6.39 | 0.297 | 0.30 | 1.85 |
| BDVWA | 5/8/26 | 1730 | 0.00 | 0.00 | 0.00 | 0.03 | 6.39 | 0.267 | 0.32 | 1.76 |
| Newberry Springs | 5/8/26 | 1730 | 0.00 | 0.00 | 0.00 | 0.00 | 2.70 | 0.328 | 0.36 | 2.01 |
| Pinon Hills | 5/8/26 | 1730 | 0.00 | 0.00 | 0.00 | 0.00 | 15.51 | 0.232 | 0.28 | 1.53 |
| Helendale | 5/8/26 | 1730 | 0.00 | 0.00 | 0.00 | 0.00 | 5.55 | 0.265 | 0.30 | 1.78 |
| Lenwood | 5/8/26 | 1730 | 0.00 | 0.00 | 0.00 | 0.00 | 4.24 | 0.259 | 0.30 | 1.86 |
| Oak Hills | 5/8/26 | 1730 | 0.00 | 0.00 | 0.00 | 0.00 | 14.72 | 0.235 | 0.25 | 1.35 |
| Pipes Wash Canyon | 5/8/26 | 1730 | 0.00 | 0.00 | 0.00 | 0.00 | 13.92 | 0.255 | 0.27 | 1.49 |
| Max | 0.00 | 0.00 | 0.00 | 0.03 | 15.51 | 0.328 | 0.36 | 2.01 | ||
| Avg | 0.00 | - | - | - | - | - | - | - | ||
| Min | 0.00 | 0.00 | 0.00 | 0.00 | 2.70 | 0.232 | 0.25 | 1.35 |